Time;durP1;ratioP1;P1;durP2;ratioP2;P2;SDS_P1;SDS_P2;PMS_P1;PMS_P2;Temp;Humidity;BMP_temperature;BMP_pressure;BME280_temperature;BME280_humidity;BME280_pressure;Samples;Min_cycle;Max_cycle;Signal;HPM_P1;HPM_P2
2023/09/19 00:00:47;;;;;;;;;;;;;;;27.27;44.04;99158.59;4484103;32;34458;-63
2023/09/19 00:03:15;;;;;;;;;;;;;;;27.35;43.80;99164.41;4484462;32;33420;-63
2023/09/19 00:05:46;;;;;;;9.95;5.47;;;;;;;27.37;43.85;99164.97;4484510;32;34386;-62
2023/09/19 00:08:13;;;;;;;13.00;6.30;;;;;;;27.28;44.00;99165.72;4484884;32;33989;-62
2023/09/19 00:10:42;;;;;;;9.60;5.90;;;;;;;27.24;44.23;99165.47;4484605;32;34303;-62
2023/09/19 00:13:13;;;;;;;12.45;5.85;;;;;;;27.25;44.34;99166.28;4483596;32;34071;-62
2023/09/19 00:15:48;;;;;;;10.38;6.05;;;;;;;27.25;44.36;99160.81;4483638;32;33424;-62
2023/09/19 00:18:24;;;;;;;9.18;5.87;;;;;;;27.23;44.33;99166.53;4481905;31;34720;-62
2023/09/19 00:20:52;;;;;;;9.98;6.30;;;;;;;27.24;44.34;99168.19;4487066;31;33858;-62
2023/09/19 00:23:20;;;;;;;9.20;5.80;;;;;;;27.24;44.23;99159.97;4500701;31;33549;-62
2023/09/19 00:25:48;;;;;;;10.57;5.80;;;;;;;27.23;44.21;99160.22;4500553;31;33789;-63
2023/09/19 00:28:18;;;;;;;11.88;5.68;;;;;;;27.24;44.22;99165.47;4500658;31;34007;-63
2023/09/19 00:30:55;;;;;;;12.43;5.80;;;;;;;27.23;44.21;99162.97;4486470;31;33943;-64
2023/09/19 00:33:24;;;;;;;10.23;5.72;;;;;;;27.25;44.18;99166.28;4487354;31;33495;-63
2023/09/19 00:35:52;;;;;;;10.40;6.37;;;;;;;27.25;44.18;99160.81;4500372;31;33909;-63
2023/09/19 00:38:26;;;;;;;11.82;6.30;;;;;;;27.24;44.21;99157.25;4473253;31;34558;-63
2023/09/19 00:40:56;;;;;;;11.10;6.18;;;;;;;27.24;44.25;99161.91;4500437;31;34030;-63
2023/09/19 00:43:27;;;;;;;9.82;6.03;;;;;;;27.25;44.26;99160.81;4500381;31;32980;-63
2023/09/19 00:45:56;;;;;;;10.40;6.30;;;;;;;27.24;44.30;99154.50;4500677;31;33984;-63
2023/09/19 00:48:27;;;;;;;11.07;5.60;;;;;;;27.24;44.41;99154.50;4485858;31;33936;-63
2023/09/19 00:50:55;;;;;;;11.00;5.80;;;;;;;27.23;44.39;99162.97;4470843;32;33376;-64
2023/09/19 00:53:23;;;;;;;7.50;5.80;;;;;;;27.23;44.43;99161.06;4483382;31;33311;-63
2023/09/19 00:55:51;;;;;;;8.27;6.32;;;;;;;27.23;44.38;99157.50;4485848;31;34535;-63
2023/09/19 00:58:19;;;;;;;9.85;6.10;;;;;;;27.23;44.40;99154.75;4472950;31;34574;-63
2023/09/19 01:00:50;;;;;;;12.20;6.50;;;;;;;27.24;44.41;99162.72;4500070;31;34487;-63
2023/09/19 01:03:18;;;;;;;9.85;6.32;;;;;;;27.23;44.44;99155.56;4485878;31;33518;-63
2023/09/19 01:05:46;;;;;;;11.07;5.87;;;;;;;27.24;44.43;99159.16;4500447;31;33866;-63
2023/09/19 01:08:14;;;;;;;16.23;6.55;;;;;;;27.25;44.47;99160.81;4500351;31;33258;-63
2023/09/19 01:10:46;;;;;;;16.62;6.20;;;;;;;27.24;44.50;99153.69;4485763;31;34603;-63
2023/09/19 01:13:30;;;;;;;9.90;6.60;;;;;;;27.23;44.59;99154.75;4470157;32;33415;-63
2023/09/19 01:16:11;;;;;;;10.77;7.12;;;;;;;27.25;44.73;99153.41;4483315;32;33346;-64
2023/09/19 01:19:02;;;;;;;11.60;6.57;;;;;;;27.25;44.98;99160.81;4488749;31;34047;-63
2023/09/19 01:21:38;;;;;;;10.82;6.60;;;;;;;27.25;44.95;99155.31;4483179;32;33695;-63
2023/09/19 01:24:29;;;;;;;9.13;6.65;;;;;;;27.25;44.88;99156.16;4470552;32;33589;-63
2023/09/19 01:27:15;;;;;;;10.35;7.30;;;;;;;27.27;44.84;99153.13;4484374;32;34729;-63
2023/09/19 01:29:47;;;;;;;12.88;6.40;;;;;;;27.26;44.85;99146.84;4483007;32;32771;-63
2023/09/19 01:32:41;;;;;;;10.88;7.00;;;;;;;27.24;44.82;99148.22;4484304;32;33658;-63
2023/09/19 01:35:12;;;;;;;10.30;6.70;;;;;;;27.26;44.78;99143.28;4483187;32;34118;-63
2023/09/19 01:37:43;;;;;;;9.63;6.47;;;;;;;27.23;44.75;99132.84;4484203;32;34627;-63
2023/09/19 01:40:16;;;;;;;14.00;8.13;;;;;;;27.23;44.78;99135.56;4484211;32;33754;-63
2023/09/19 01:42:51;;;;;;;10.00;6.75;;;;;;;27.24;44.80;99142.72;4483021;32;33593;-63
2023/09/19 01:45:47;;;;;;;11.52;7.20;;;;;;;27.23;44.82;99133.66;4484129;32;33359;-63
2023/09/19 01:49:23;;;;;;;13.65;6.90;;;;;;;27.25;44.77;99133.41;4469851;32;32828;-63
2023/09/19 01:51:59;;;;;;;10.18;7.28;;;;;;;27.25;44.69;99131.50;4413573;32;33581;-63
2023/09/19 01:54:30;;;;;;;11.23;6.75;;;;;;;27.23;44.71;99138.31;4419667;32;34495;-63
2023/09/19 01:57:04;;;;;;;9.10;6.55;;;;;;;27.21;44.75;99142.16;4438814;32;34314;-63
2023/09/19 01:59:42;;;;;;;11.38;7.37;;;;;;;27.20;44.74;99137.78;4482976;32;33738;-63
2023/09/19 02:02:11;;;;;;;10.75;7.22;;;;;;;27.23;44.67;99136.41;4484080;32;34180;-63
2023/09/19 02:04:39;;;;;;;12.63;7.85;;;;;;;27.21;44.67;99136.69;4482951;32;33643;-63
2023/09/19 02:07:08;;;;;;;14.45;8.07;;;;;;;27.21;44.66;99138.59;4457023;32;33124;-64
2023/09/19 02:09:37;;;;;;;11.38;7.45;;;;;;;27.23;44.65;99141.88;4482477;32;34738;-63
2023/09/19 02:12:05;;;;;;;12.05;7.45;;;;;;;27.21;44.65;99144.91;4483325;32;33532;-63
2023/09/19 02:14:35;;;;;;;11.88;7.40;;;;;;;27.21;44.64;99139.41;4483931;32;33770;-63
2023/09/19 02:17:06;;;;;;;12.80;7.12;;;;;;;27.21;44.62;99141.34;4482764;32;33257;-64
2023/09/19 02:19:34;;;;;;;13.30;8.60;;;;;;;27.21;44.58;99131.19;4483987;32;34379;-63
2023/09/19 02:22:07;;;;;;;13.15;7.40;;;;;;;27.21;44.56;99131.19;4487374;31;33652;-63
2023/09/19 02:24:36;;;;;;;14.95;8.00;;;;;;;27.23;44.62;99130.09;4499697;31;33864;-64
2023/09/19 02:27:04;;;;;;;13.15;8.23;;;;;;;27.21;44.64;99122.97;4499953;31;33446;-63
2023/09/19 02:29:34;;;;;;;11.38;7.70;;;;;;;27.21;44.67;99125.72;4499395;31;34643;-64
2023/09/19 02:32:02;;;;;;;12.95;8.02;;;;;;;27.21;44.68;99131.19;4499641;31;34777;-63
2023/09/19 02:34:32;;;;;;;11.47;7.60;;;;;;;27.23;44.66;99132.84;4499557;31;34280;-64
2023/09/19 02:37:00;;;;;;;14.23;8.00;;;;;;;27.21;44.67;99133.94;4499356;31;33161;-64
2023/09/19 02:39:28;;;;;;;11.15;8.02;;;;;;;27.21;44.68;99135.84;4499536;31;34695;-63
2023/09/19 02:41:56;;;;;;;13.13;8.10;;;;;;;27.21;44.68;99135.84;4499559;31;33933;-63
2023/09/19 02:44:23;;;;;;;10.07;7.75;;;;;;;27.20;44.70;99132.28;4499300;31;33729;-64
2023/09/19 02:46:51;;;;;;;11.60;8.35;;;;;;;27.20;44.75;99135.03;4499357;31;34204;-63
2023/09/19 02:49:19;;;;;;;10.85;7.35;;;;;;;27.20;44.73;99132.28;4499595;31;33615;-63
2023/09/19 02:51:47;;;;;;;13.50;8.90;;;;;;;27.21;44.74;99133.13;4499198;31;34654;-63
2023/09/19 02:54:15;;;;;;;13.73;8.35;;;;;;;27.20;44.77;99139.69;4499326;31;33504;-63
2023/09/19 02:56:43;;;;;;;11.30;7.62;;;;;;;27.20;44.80;99131.47;4499143;31;33409;-63
2023/09/19 02:59:11;;;;;;;13.13;8.52;;;;;;;27.20;44.87;99126.00;4499225;31;33489;-63
2023/09/19 03:01:38;;;;;;;11.00;8.15;;;;;;;27.20;44.87;99124.09;4499195;31;33833;-63
2023/09/19 03:04:06;;;;;;;12.60;8.63;;;;;;;27.19;44.88;99125.19;4484687;31;34675;-63
2023/09/19 03:06:35;;;;;;;13.62;8.65;;;;;;;27.20;44.85;99136.97;4485409;31;33526;-63
2023/09/19 03:09:06;;;;;;;10.93;7.95;;;;;;;27.21;44.87;99139.41;4499264;31;34032;-63
2023/09/19 03:11:33;;;;;;;12.73;8.07;;;;;;;27.20;44.86;99143.25;4498906;31;34817;-63
2023/09/19 03:14:04;;;;;;;14.00;8.90;;;;;;;27.20;44.90;99146.00;4498883;31;33917;-63
2023/09/19 03:16:31;;;;;;;9.93;8.18;;;;;;;27.20;44.88;99140.50;4499094;31;33415;-63
2023/09/19 03:18:59;;;;;;;16.12;9.00;;;;;;;27.20;44.92;99137.78;4485770;31;33838;-63
2023/09/19 03:21:29;;;;;;;13.50;8.65;;;;;;;27.20;44.97;99136.97;4483469;32;34026;-63
2023/09/19 03:23:57;;;;;;;11.43;8.10;;;;;;;27.20;44.91;99145.19;4483896;32;34745;-63
2023/09/19 03:26:26;;;;;;;10.98;7.82;;;;;;;27.21;44.91;99138.59;4485260;32;33113;-63
2023/09/19 03:28:54;;;;;;;9.88;8.20;;;;;;;27.20;44.88;99140.50;4485207;32;33645;-63
2023/09/19 03:31:21;;;;;;;18.60;7.80;;;;;;;27.20;44.85;99137.78;4485377;32;34744;-62
2023/09/19 03:33:49;;;;;;;14.55;8.38;;;;;;;27.20;44.92;99140.50;4484898;32;34478;-63
2023/09/19 03:36:17;;;;;;;12.48;8.48;;;;;;;27.19;44.90;99141.63;4485179;32;33024;-63
2023/09/19 03:38:44;;;;;;;10.80;7.60;;;;;;;27.20;44.81;99147.91;4485152;32;33928;-63
2023/09/19 03:41:14;;;;;;;11.57;8.45;;;;;;;27.20;44.80;99142.44;4485204;32;34839;-63
2023/09/19 03:43:42;;;;;;;13.52;8.23;;;;;;;27.19;44.80;99138.88;4485438;32;33668;-63
2023/09/19 03:46:12;;;;;;;12.32;8.43;;;;;;;27.21;44.79;99138.59;4485025;32;33386;-63
2023/09/19 03:48:40;;;;;;;16.92;9.00;;;;;;;27.21;44.78;99146.81;4485193;32;33837;-63
2023/09/19 03:51:08;;;;;;;15.20;8.68;;;;;;;27.20;44.84;99146.00;4484924;32;33931;-63
2023/09/19 03:53:36;;;;;;;11.27;8.52;;;;;;;27.21;44.89;99144.06;4484736;32;34281;-63
2023/09/19 03:56:03;;;;;;;12.65;8.45;;;;;;;27.20;44.89;99147.91;4484959;32;33523;-63
2023/09/19 03:58:31;;;;;;;11.02;7.72;;;;;;;27.20;44.86;99146.00;4485293;32;33681;-63
2023/09/19 04:00:59;;;;;;;13.73;8.07;;;;;;;27.20;44.86;99147.91;4484933;32;33501;-63
2023/09/19 04:03:34;;;;;;;11.95;8.30;;;;;;;27.19;44.88;99147.09;4485317;32;33850;-63
2023/09/19 04:06:03;;;;;;;15.38;8.45;;;;;;;27.20;44.87;99147.91;4483535;32;33077;-63
2023/09/19 04:08:30;;;;;;;12.60;8.40;;;;;;;27.20;44.86;99147.91;4484658;32;34737;-63
2023/09/19 04:10:58;;;;;;;12.13;8.10;;;;;;;27.19;44.87;99159.97;4483792;32;34442;-63
2023/09/19 04:13:26;;;;;;;11.95;8.43;;;;;;;27.19;44.85;99155.31;4484933;32;33932;-63
2023/09/19 04:15:53;;;;;;;12.90;8.55;;;;;;;27.19;44.83;99152.56;4484734;32;34231;-63
2023/09/19 04:18:23;;;;;;;14.60;8.20;;;;;;;27.19;44.78;99154.50;4484813;32;33934;-64
2023/09/19 04:20:50;;;;;;;13.88;8.60;;;;;;;27.18;44.81;99161.84;4484766;32;34796;-63
2023/09/19 04:23:21;;;;;;;12.07;8.80;;;;;;;27.18;44.83;99159.12;4484209;32;33754;-63
2023/09/19 04:25:50;;;;;;;13.32;8.60;;;;;;;27.18;44.65;99172.81;4481153;32;34239;-63
2023/09/19 04:28:18;;;;;;;12.02;7.43;;;;;;;27.17;44.57;99173.91;4475255;32;32961;-63
2023/09/19 04:30:47;;;;;;;13.70;7.25;;;;;;;27.18;44.58;99180.19;4485802;31;33853;-65
2023/09/19 04:33:14;;;;;;;10.10;6.07;;;;;;;27.18;44.57;99188.41;4455458;32;33669;-63
2023/09/19 04:35:42;;;;;;;10.60;5.70;;;;;;;27.16;44.55;99185.13;4483668;32;33321;-63
2023/09/19 04:38:10;;;;;;;11.95;5.00;;;;;;;27.14;44.42;99182.66;4482254;32;34568;-79
2023/09/19 04:40:39;;;;;;;10.43;4.37;;;;;;;27.12;44.35;99192.22;4484190;32;33821;-77
2023/09/19 04:43:07;;;;;;;;;;;;;;;27.11;44.39;99207.03;4484337;32;33716;-80
2023/09/19 04:45:35;;;;;;;9.45;4.20;;;;;;;27.18;44.18;99210.31;4485775;31;33142;-78
2023/09/19 04:48:03;;;;;;;11.90;3.22;;;;;;;27.10;44.33;99208.13;4484337;32;33940;-80
2023/09/19 04:50:31;;;;;;;8.07;3.70;;;;;;;27.07;44.41;99211.34;4484554;32;34879;-72
2023/09/19 04:53:00;;;;;;;10.07;3.20;;;;;;;27.06;44.42;99207.78;4484612;32;34559;-79
2023/09/19 04:55:27;;;;;;;15.38;3.47;;;;;;;27.05;44.48;99217.09;4484942;31;32957;-71
2023/09/19 04:57:56;;;;;;;11.93;3.03;;;;;;;27.06;44.51;99212.44;4484603;32;33872;-79
2023/09/19 05:00:24;;;;;;;6.70;2.28;;;;;;;27.06;44.54;99212.44;4484711;31;33246;-79
2023/09/19 05:02:52;;;;;;;4.03;2.22;;;;;;;27.04;44.49;99215.41;4483549;32;34497;-78
2023/09/19 05:05:20;;;;;;;10.77;2.70;;;;;;;27.04;44.48;99220.06;4483081;32;33527;-71
2023/09/19 05:07:48;;;;;;;8.20;2.50;;;;;;;27.05;44.49;99232.69;4482116;32;33363;-70
2023/09/19 05:10:18;;;;;;;7.20;3.53;;;;;;;27.05;44.52;99236.25;4481190;32;33698;-70
2023/09/19 05:12:48;;;;;;;6.85;3.28;;;;;;;27.05;44.53;99238.19;4483103;32;33912;-71
2023/09/19 05:15:16;;;;;;;5.67;2.90;;;;;;;27.04;44.53;99234.59;4481969;32;33430;-70
2023/09/19 05:17:51;;;;;;;6.80;3.17;;;;;;;27.04;44.50;99242.81;4482520;32;34309;-70
2023/09/19 05:20:32;;;;;;;5.97;2.72;;;;;;;27.06;44.52;99245.28;4481236;32;34383;-69
2023/09/19 05:23:05;;;;;;;6.22;2.60;;;;;;;27.05;44.51;99249.13;4469231;32;33495;-70
2023/09/19 05:25:37;;;;;;;9.40;2.40;;;;;;;27.05;44.51;99251.88;4467341;32;33578;-71
2023/09/19 05:28:10;;;;;;;6.07;2.55;;;;;;;27.04;44.53;99252.94;4466963;32;33703;-71
2023/09/19 05:30:41;;;;;;;5.53;2.37;;;;;;;27.05;44.55;99255.44;4454210;32;34753;-71
2023/09/19 05:33:08;;;;;;;4.22;2.37;;;;;;;27.04;44.53;99245.53;4466842;32;33947;-70
2023/09/19 05:35:41;;;;;;;6.43;2.78;;;;;;;27.05;44.53;99246.37;4466784;32;33545;-71
2023/09/19 05:38:09;;;;;;;7.72;2.60;;;;;;;27.04;44.51;99245.53;4472353;32;33923;-70
2023/09/19 05:40:38;;;;;;;6.35;2.90;;;;;;;27.04;44.51;99242.81;4484279;32;33905;-70
2023/09/19 05:43:06;;;;;;;7.90;3.12;;;;;;;27.05;44.51;99240.91;4484145;32;33833;-64
2023/09/19 05:45:35;;;;;;;4.78;1.83;;;;;;;27.05;44.49;99249.94;4484174;32;33365;-70
2023/09/19 05:48:11;;;;;;;6.12;2.35;;;;;;;27.04;44.52;99245.53;4468926;32;33127;-71
2023/09/19 05:50:40;;;;;;;4.37;2.30;;;;;;;27.05;44.51;99255.44;4482936;32;33326;-67
2023/09/19 05:53:08;;;;;;;6.72;2.87;;;;;;;27.04;44.47;99259.22;4483029;32;33787;-71
2023/09/19 05:55:35;;;;;;;4.37;2.33;;;;;;;27.03;44.48;99259.50;4482973;32;34115;-68
2023/09/19 05:58:03;;;;;;;7.37;2.55;;;;;;;27.03;44.49;99252.09;4483959;32;33843;-70
2023/09/19 06:00:31;;;;;;;7.87;2.55;;;;;;;27.04;44.50;99248.28;4483030;32;33970;-68
2023/09/19 06:02:59;;;;;;;6.50;2.50;;;;;;;27.04;44.48;99258.41;4482872;32;33464;-69
2023/09/19 06:05:27;;;;;;;4.47;2.17;;;;;;;27.05;44.47;99257.34;4482924;32;32620;-67
2023/09/19 06:07:55;;;;;;;5.10;2.35;;;;;;;27.04;44.45;99258.41;4482819;32;33892;-68
2023/09/19 06:10:25;;;;;;;9.13;2.97;;;;;;;27.04;44.45;99256.50;4482766;32;33922;-70
2023/09/19 06:12:53;;;;;;;4.60;2.22;;;;;;;27.03;44.43;99257.59;4483869;32;33528;-71
2023/09/19 06:15:22;;;;;;;3.65;2.20;;;;;;;27.04;44.40;99264.72;4483870;32;34059;-70
2023/09/19 06:17:59;;;;;;;;;;;;;;;27.03;44.43;99271.28;4482933;32;33445;-72
2023/09/19 06:20:26;;;;;;;4.43;2.05;;;;;;;27.12;44.26;99269.72;4483973;32;33839;-71
2023/09/19 06:22:55;;;;;;;5.20;2.28;;;;;;;27.06;44.36;99278.16;4483856;32;34734;-71
2023/09/19 06:25:23;;;;;;;5.37;2.35;;;;;;;27.02;44.44;99274.28;4469608;32;34243;-70
2023/09/19 06:27:55;;;;;;;3.50;2.33;;;;;;;27.03;44.47;99278.66;4483854;32;33218;-70
2023/09/19 06:30:24;;;;;;;7.05;2.50;;;;;;;27.01;44.46;99283.59;4483682;32;34776;-71
2023/09/19 06:32:56;;;;;;;4.95;2.20;;;;;;;27.01;44.46;99292.63;4482932;32;33880;-71
2023/09/19 06:35:26;;;;;;;5.62;2.33;;;;;;;27.03;44.46;99292.34;4461112;32;34284;-69
2023/09/19 06:37:53;;;;;;;4.10;2.33;;;;;;;27.02;44.45;99287.97;4466700;32;33742;-71
2023/09/19 06:40:21;;;;;;;3.92;2.00;;;;;;;27.02;44.44;99291.53;4470618;32;33912;-71
2023/09/19 06:42:55;;;;;;;5.05;2.00;;;;;;;27.02;44.43;99293.47;4483694;32;33595;-71
2023/09/19 06:45:26;;;;;;;5.22;2.67;;;;;;;27.02;44.45;99287.97;4470169;32;33504;-71
2023/09/19 06:47:57;;;;;;;5.10;2.30;;;;;;;27.01;44.44;99292.63;4483565;32;33840;-71
2023/09/19 06:50:26;;;;;;;4.50;2.28;;;;;;;27.01;44.45;99309.06;4478389;32;34738;-69
2023/09/19 06:52:57;;;;;;;5.43;2.30;;;;;;;27.01;44.44;99305.50;4466650;32;34502;-70
2023/09/19 06:55:27;;;;;;;;;;;;;;;27.02;44.46;99310.69;4454549;32;32766;-71
2023/09/19 06:57:57;;;;;;;4.45;2.70;;;;;;;27.10;44.25;99318.47;4454585;32;32979;-71
2023/09/19 07:00:25;;;;;;;3.80;1.95;;;;;;;27.03;44.38;99331.50;4455554;32;33741;-71
2023/09/19 07:03:04;;;;;;;5.22;2.37;;;;;;;27.00;44.44;99325.72;4479478;32;34439;-71
2023/09/19 07:05:32;;;;;;;3.95;1.95;;;;;;;27.01;44.49;99336.44;4471709;32;32786;-70
2023/09/19 07:08:02;;;;;;;5.07;2.10;;;;;;;27.01;44.49;99344.66;4475158;32;33520;-70
2023/09/19 07:10:30;;;;;;;6.53;2.15;;;;;;;27.01;44.49;99349.31;4468221;32;33879;-71
2023/09/19 07:12:59;;;;;;;7.87;2.42;;;;;;;27.02;44.49;99353.69;4455582;32;34570;-71
2023/09/19 07:15:28;;;;;;;7.20;2.50;;;;;;;27.00;44.52;99345.75;4468297;32;33064;-70
2023/09/19 07:17:56;;;;;;;4.72;2.15;;;;;;;27.00;44.50;99356.69;4468124;32;34315;-70
2023/09/19 07:20:29;;;;;;;5.62;2.50;;;;;;;27.00;44.48;99359.44;4455543;32;32520;-70
2023/09/19 07:22:59;;;;;;;3.55;1.98;;;;;;;27.00;44.46;99353.97;4468417;32;34503;-71
2023/09/19 07:25:28;;;;;;;5.05;2.30;;;;;;;27.00;44.46;99356.69;4455830;32;33545;-70
2023/09/19 07:27:56;;;;;;;4.43;2.10;;;;;;;27.01;44.45;99365.75;4469462;32;34559;-70
2023/09/19 07:30:23;;;;;;;6.25;2.30;;;;;;;27.00;44.44;99355.84;4480727;32;34009;-69
2023/09/19 07:32:52;;;;;;;3.75;2.17;;;;;;;27.00;44.43;99353.97;4485232;32;34815;-69
2023/09/19 07:35:20;;;;;;;5.75;2.37;;;;;;;27.01;44.42;99363.00;4471099;32;33657;-66
2023/09/19 07:37:51;;;;;;;4.70;2.40;;;;;;;27.00;44.42;99364.06;4484919;32;33895;-67
2023/09/19 07:40:23;;;;;;;5.22;2.40;;;;;;;27.00;44.42;99366.81;4469312;32;33633;-70
2023/09/19 07:42:51;;;;;;;5.70;2.20;;;;;;;27.00;44.41;99367.66;4469311;32;33835;-69
2023/09/19 07:45:19;;;;;;;5.00;2.10;;;;;;;27.00;44.41;99373.12;4469154;32;32870;-69
2023/09/19 07:47:47;;;;;;;3.60;1.98;;;;;;;27.00;44.39;99373.12;4469066;32;34344;-70
2023/09/19 07:50:19;;;;;;;3.95;2.08;;;;;;;27.00;44.39;99380.50;4469241;32;33598;-68
2023/09/19 07:52:50;;;;;;;4.05;2.08;;;;;;;26.99;44.41;99385.16;4442053;32;33576;-71
2023/09/19 07:55:23;;;;;;;3.92;1.98;;;;;;;27.00;44.39;99391.44;4467905;32;34316;-72
2023/09/19 07:57:54;;;;;;;3.50;2.20;;;;;;;26.99;44.40;99396.09;4455911;32;33930;-68
2023/09/19 08:00:22;;;;;;;3.58;2.00;;;;;;;27.00;44.42;99399.66;4467884;32;34060;-69
2023/09/19 08:02:51;;;;;;;4.82;2.30;;;;;;;27.00;44.40;99399.66;4469145;32;33906;-72
2023/09/19 08:05:27;;;;;;;2.78;1.70;;;;;;;26.99;44.42;99407.06;4468084;32;33298;-68
2023/09/19 08:07:59;;;;;;;3.75;2.20;;;;;;;27.00;44.40;99411.47;4469201;32;34750;-67
2023/09/19 08:10:27;;;;;;;2.55;1.90;;;;;;;27.00;44.39;99410.59;4468317;32;34085;-71
2023/09/19 08:12:59;;;;;;;3.78;2.00;;;;;;;27.00;44.38;99418.81;4469142;32;34609;-70
2023/09/19 08:15:27;;;;;;;3.33;2.03;;;;;;;27.00;44.40;99416.09;4469588;32;33660;-70
2023/09/19 08:17:54;;;;;;;3.40;1.87;;;;;;;27.00;44.41;99416.94;4468893;32;33767;-71
2023/09/19 08:20:23;;;;;;;2.90;1.75;;;;;;;27.00;44.42;99413.34;4469035;32;33987;-72
2023/09/19 08:23:00;;;;;;;3.83;2.00;;;;;;;27.00;44.41;99418.81;4467868;32;34175;-71
2023/09/19 08:25:29;;;;;;;3.08;1.90;;;;;;;26.98;44.42;99421.84;4470929;32;33356;-71
2023/09/19 08:27:57;;;;;;;2.85;1.90;;;;;;;26.99;44.40;99422.66;4483252;32;33906;-71
2023/09/19 08:30:29;;;;;;;3.15;2.00;;;;;;;26.99;44.41;99425.41;4484452;32;34811;-72
2023/09/19 08:33:00;;;;;;;;;;;;;;;26.99;44.40;99439.09;4484811;32;34194;-71
2023/09/19 08:35:28;;;;;;;3.50;1.92;;;;;;;27.08;44.21;99437.53;4484985;32;33149;-72
2023/09/19 08:38:03;;;;;;;3.10;1.80;;;;;;;27.01;44.34;99445.16;4484260;32;34628;-71
2023/09/19 08:40:36;;;;;;;5.53;2.30;;;;;;;26.98;44.41;99449.22;4459921;31;33975;-71
2023/09/19 08:43:03;;;;;;;4.05;2.03;;;;;;;26.97;44.44;99458.50;4465853;32;34920;-74
2023/09/19 08:45:32;;;;;;;3.45;1.90;;;;;;;26.98;44.44;99462.06;4466898;31;33597;-71
2023/09/19 08:48:05;;;;;;;4.00;2.03;;;;;;;26.98;44.44;99475.75;4468255;32;34753;-72
2023/09/19 08:50:43;;;;;;;2.92;1.85;;;;;;;26.98;44.45;99483.97;4467793;31;34029;-73
2023/09/19 08:53:14;;;;;;;3.22;2.00;;;;;;;26.99;44.45;99496.59;4461273;32;34189;-73
2023/09/19 08:55:42;;;;;;;3.65;1.70;;;;;;;26.98;44.44;99493.03;4454881;32;33795;-74
2023/09/19 08:58:10;;;;;;;3.90;2.17;;;;;;;26.98;44.44;99494.94;4445781;32;34183;-72
2023/09/19 09:00:42;;;;;;;4.00;2.10;;;;;;;26.98;44.46;99492.19;4454150;32;35065;-71
2023/09/19 09:03:12;;;;;;;3.12;1.95;;;;;;;26.98;44.46;99478.50;4483274;32;34830;-73
2023/09/19 09:05:41;;;;;;;3.53;1.98;;;;;;;26.98;44.42;99470.28;4457387;32;34642;-72
2023/09/19 09:08:10;;;;;;;3.83;2.00;;;;;;;26.98;44.42;99475.75;4470294;32;33820;-72
2023/09/19 09:10:40;;;;;;;4.32;2.03;;;;;;;26.99;44.38;99461.00;4458160;32;33715;-69
2023/09/19 09:13:09;;;;;;;3.10;1.70;;;;;;;26.99;44.38;99441.81;4467494;32;33866;-71
2023/09/19 09:15:37;;;;;;;3.47;2.15;;;;;;;26.97;44.37;99422.91;4467731;32;33632;-72
2023/09/19 09:18:07;;;;;;;2.87;1.90;;;;;;;26.98;44.37;99416.34;4454790;32;33748;-71
2023/09/19 09:20:37;;;;;;;3.35;1.77;;;;;;;26.97;44.37;99420.19;4467373;32;34427;-72
2023/09/19 09:23:06;;;;;;;3.10;1.73;;;;;;;26.96;44.36;99408.41;4468415;32;33811;-72
2023/09/19 09:25:54;;;;;;;4.10;2.05;;;;;;;26.96;44.37;99411.16;4481451;32;33687;-72
2023/09/19 09:28:24;;;;;;;3.12;1.98;;;;;;;26.99;44.34;99412.53;4484215;31;33863;-73
2023/09/19 09:30:55;;;;;;;3.42;1.65;;;;;;;26.99;44.36;99419.91;4470501;32;33340;-71
2023/09/19 09:33:26;;;;;;;3.85;2.10;;;;;;;26.98;44.37;99429.22;4470225;32;34365;-72
2023/09/19 09:35:59;;;;;;;2.78;1.80;;;;;;;26.96;44.38;99435.78;4468842;32;34171;-72
2023/09/19 09:38:43;;;;;;;3.90;2.12;;;;;;;26.96;44.42;99443.19;4467771;32;34468;-72
2023/09/19 09:41:15;;;;;;;3.70;1.67;;;;;;;26.96;44.42;99454.97;4469672;32;33241;-73
2023/09/19 09:43:46;;;;;;;3.75;2.12;;;;;;;26.97;44.42;99461.25;4468048;32;33714;-73
2023/09/19 09:49:18;;;;;;;3.37;1.90;;;;;;;26.96;44.43;99460.44;4468178;32;33568;-72
2023/09/19 09:52:17;;;;;;;3.37;1.77;;;;;;;26.99;44.38;99458.25;4480906;32;34466;-73
2023/09/19 09:55:07;;;;;;;3.70;1.80;;;;;;;26.99;44.37;99458.25;4481960;32;34231;-72
2023/09/19 09:57:35;;;;;;;2.70;1.80;;;;;;;26.97;44.39;99453.03;4470772;31;34349;-71
2023/09/19 10:02:40;;;;;;;5.45;1.95;;;;;;;26.96;44.45;99459.59;4499771;31;34729;-71
2023/09/19 10:05:28;;;;;;;3.50;1.75;;;;;;;26.95;44.44;99458.78;4472538;31;34030;-70
2023/09/19 10:08:09;;;;;;;3.70;1.52;;;;;;;26.96;44.42;99454.97;4473050;31;34365;-72
2023/09/19 10:11:04;;;;;;;3.60;1.87;;;;;;;26.97;44.41;99453.03;4483728;32;34689;-72
2023/09/19 10:13:33;;;;;;;3.25;1.50;;;;;;;26.96;44.43;99454.13;4472900;32;33726;-72
2023/09/19 10:16:03;;;;;;;3.75;1.92;;;;;;;26.95;44.43;99458.78;4482709;32;34128;-72
2023/09/19 10:18:32;;;;;;;3.33;1.90;;;;;;;26.94;44.45;99457.09;4472599;31;33590;-72
2023/09/19 10:21:01;;;;;;;3.60;1.90;;;;;;;26.96;44.44;99459.59;4485347;31;33844;-72
2023/09/19 10:23:34;;;;;;;3.17;1.70;;;;;;;26.96;44.45;99465.09;4485204;31;33857;-73
2023/09/19 10:26:04;;;;;;;3.25;1.58;;;;;;;26.96;44.44;99463.16;4473599;31;34063;-70
2023/09/19 10:28:33;;;;;;;3.45;1.87;;;;;;;26.96;44.43;99473.31;4453335;32;33668;-72
2023/09/19 10:31:03;;;;;;;3.55;1.83;;;;;;;26.97;44.43;99466.72;4454299;32;34674;-72
2023/09/19 10:33:37;;;;;;;2.75;1.85;;;;;;;26.97;44.42;99466.72;4452777;32;33383;-71
2023/09/19 10:36:05;;;;;;;2.33;1.62;;;;;;;26.98;44.42;99467.56;4441572;32;32649;-73
2023/09/19 10:38:33;;;;;;;3.70;2.10;;;;;;;26.98;44.42;99473.84;4462020;31;33643;-72
2023/09/19 10:41:03;;;;;;;2.78;1.52;;;;;;;26.96;44.43;99474.13;4452692;32;32749;-70
2023/09/19 10:43:34;;;;;;;3.37;1.83;;;;;;;26.97;44.41;99483.16;4457539;31;33868;-72
2023/09/19 10:46:07;;;;;;;;;;;;;;;26.98;44.42;99483.97;4458057;31;33898;-72
2023/09/19 10:48:36;;;;;;;3.60;2.00;;;;;;;27.06;44.23;99476.13;4479962;32;32087;-71
2023/09/19 10:51:11;;;;;;;3.78;1.80;;;;;;;26.99;44.36;99477.41;4454619;32;33694;-72
2023/09/19 10:53:59;;;;;;;2.58;1.60;;;;;;;26.97;44.43;99483.16;4479952;32;34495;-73
2023/09/19 10:56:32;;;;;;;2.42;1.37;;;;;;;26.99;44.42;99485.63;4469229;32;32979;-73
2023/09/19 10:59:12;;;;;;;2.90;1.70;;;;;;;26.98;44.46;99489.47;4465806;32;33005;-72
2023/09/19 11:01:59;;;;;;;3.50;2.00;;;;;;;26.98;44.46;99495.75;4482244;31;34257;-73
2023/09/19 11:04:35;;;;;;;3.17;1.62;;;;;;;26.99;44.43;99500.13;4445955;32;34177;-71
2023/09/19 11:07:16;;;;;;;2.43;1.50;;;;;;;26.96;44.44;99497.94;4471750;31;34477;-72
2023/09/19 11:09:45;;;;;;;4.68;1.67;;;;;;;26.96;44.46;99503.41;4460722;31;33335;-72
2023/09/19 11:12:40;;;;;;;2.10;1.60;;;;;;;26.96;44.46;99504.25;4499117;31;33830;-72
2023/09/19 11:15:10;;;;;;;2.80;1.87;;;;;;;27.00;44.40;99500.97;4498938;31;34453;-72
2023/09/19 11:17:41;;;;;;;3.90;2.05;;;;;;;26.96;44.44;99498.75;4453541;32;34317;-72
2023/09/19 11:22:51;;;;;;;3.22;1.60;;;;;;;26.96;44.46;99501.50;4467370;32;33935;-71
2023/09/19 11:25:39;;;;;;;2.53;1.55;;;;;;;26.97;44.43;99488.63;4467705;31;33941;-70
2023/09/19 11:28:16;;;;;;;2.00;1.40;;;;;;;26.98;44.41;99483.97;4498605;31;34351;-71
2023/09/19 11:30:45;;;;;;;3.08;1.90;;;;;;;26.97;44.43;99491.37;4484348;31;32657;-72
2023/09/19 11:33:41;;;;;;;3.67;1.73;;;;;;;26.97;44.43;99488.63;4487019;31;34244;-72
2023/09/19 11:36:10;;;;;;;2.40;1.62;;;;;;;26.97;44.42;99491.37;4453881;32;33494;-70
2023/09/19 11:38:52;;;;;;;3.70;1.90;;;;;;;26.97;44.44;99485.91;4474393;32;34068;-73
2023/09/19 11:41:20;;;;;;;;;;;;;;;26.96;44.45;99487.00;4483108;32;32747;-72
2023/09/19 11:44:17;;;;;;;3.10;1.70;;;;;;;27.06;44.24;99486.25;4468702;32;33198;-73
2023/09/19 11:46:54;;;;;;;2.65;1.80;;;;;;;27.01;44.34;99484.31;4485593;31;32858;-73
2023/09/19 11:49:31;;;;;;;3.22;1.75;;;;;;;26.98;44.40;99481.25;4485896;31;32406;-72
2023/09/19 11:52:08;;;;;;;3.25;1.55;;;;;;;26.96;44.46;99473.31;4473317;31;32737;-72
2023/09/19 11:54:41;;;;;;;2.50;1.50;;;;;;;26.94;44.46;99473.53;4474278;31;33039;-72
2023/09/19 11:57:11;;;;;;;2.33;1.40;;;;;;;26.95;44.46;99477.94;4471033;31;33921;-73
2023/09/19 11:59:39;;;;;;;2.05;1.42;;;;;;;26.96;44.46;99476.03;4470655;32;34574;-73